Time;durP1;ratioP1;P1;durP2;ratioP2;P2;SDS_P1;SDS_P2;PMS_P1;PMS_P2;Temp;Humidity;BMP_temperature;BMP_pressure;BME280_temperature;BME280_humidity;BME280_pressure;Samples;Min_cycle;Max_cycle;Signal;HPM_P1;HPM_P2
2021/04/09 00:01:45;;;;;;;;;;;;;;;1.63;75.21;102220.91;1719769;83;20277;-80
2021/04/09 00:04:14;;;;;;;;;;;;;;;1.60;75.75;102220.46;1719411;83;21426;-80
2021/04/09 00:06:41;;;;;;;;;;;;;;;1.62;76.31;102225.59;1719809;82;20437;-79
2021/04/09 00:09:12;;;;;;;;;;;;;;;1.64;76.57;102230.26;1720243;83;20249;-79
2021/04/09 00:11:43;;;;;;;;;;;;;;;1.72;77.01;102225.97;1721879;83;20289;-79
2021/04/09 00:14:18;;;;;;;;;;;;;;;1.78;77.05;102237.45;1721041;83;20190;-80
2021/04/09 00:16:46;;;;;;;;;;;;;;;1.80;76.68;102230.61;1716452;82;21222;-80
2021/04/09 00:19:17;;;;;;;;;;;;;;;1.79;76.63;102237.44;1716651;83;20236;-79
2021/04/09 00:21:46;;;;;;;;;;;;;;;1.80;76.84;102238.29;1716583;83;20130;-79
2021/04/09 00:24:14;;;;;;;;;;;;;;;1.82;77.09;102241.71;1717205;83;20880;-79
2021/04/09 00:26:42;;;;;;;;;;;;;;;1.81;77.22;102242.14;1717050;83;20304;-78
2021/04/09 00:29:10;;;;;;;;;;;;;;;1.81;77.51;102241.28;1716866;83;21202;-77
2021/04/09 00:31:39;;;;;;;;;;;;;;;1.81;77.87;102239.58;1716636;83;20222;-78
2021/04/09 00:34:06;;;;;;;;;;;;;;;1.83;78.29;102242.97;1716847;83;20709;-78
2021/04/09 00:36:37;;;;;;;;;;;;;;;1.83;78.54;102244.67;1716738;83;20234;-78
2021/04/09 00:39:06;;;;;;;;;;;;;;;1.83;78.88;102253.63;1716399;83;20234;-78
2021/04/09 00:41:37;;;;;;;;;;;;;;;1.82;79.02;102248.11;1717055;83;21376;-78
2021/04/09 00:44:10;;;;;;;;;;;;;;;1.81;79.02;102253.66;1716909;83;20230;-80
2021/04/09 00:46:38;;;;;;;;;;;;;;;1.78;78.97;102250.25;1718570;83;20110;-77
2021/04/09 00:49:06;;;;;;;;;;;;;;;1.71;79.10;102247.30;1718986;83;20207;-78
2021/04/09 00:51:36;;;;;;;;;;;;;;;1.68;79.46;102249.45;1720124;83;20202;-77
2021/04/09 00:54:07;;;;;;;;;;;;;;;1.64;79.60;102249.45;1719351;83;21141;-77
2021/04/09 00:56:35;;;;;;;;;;;;;;;1.60;79.89;102250.74;1708595;83;20182;-79
2021/04/09 00:59:04;;;;;;;;;;;;;;;1.60;80.13;102253.72;1716801;83;20212;-78
2021/04/09 01:01:32;;;;;;;;;;;;;;;1.58;80.15;102251.61;1716808;83;20933;-79
2021/04/09 01:04:00;;;;;;;;;;;;;;;1.56;80.12;102261.84;1716686;83;20257;-78
2021/04/09 01:06:28;;;;;;;;;;;;;;;1.56;80.12;102262.30;1708394;83;21219;-79
2021/04/09 01:08:56;;;;;;;;;;;;;;;1.56;80.15;102263.57;1708198;83;20513;-78
2021/04/09 01:11:24;;;;;;;;;;;;;;;1.54;80.17;102268.67;1716587;83;20246;-78
2021/04/09 01:13:52;;;;;;;;;;;;;;;1.54;80.19;102270.37;1716563;82;20320;-79
2021/04/09 01:16:47;;;;;;;;;;;;;;;1.53;80.10;102272.53;1716938;83;20492;-78
2021/04/09 01:19:19;;;;;;;;;;;;;;;1.50;80.01;102272.09;1716620;83;21197;-79
2021/04/09 01:21:52;;;;;;;;;;;;;;;1.47;80.05;102272.10;1716455;82;20594;-79
2021/04/09 01:24:28;;;;;;;;;;;;;;;1.43;80.05;102274.27;1716769;83;20142;-79
2021/04/09 01:27:33;;;;;;;;;;;;;;;1.41;80.11;102277.66;1717188;83;20740;-79
2021/04/09 01:30:13;;;;;;;;;;;;;;;1.37;80.11;102278.09;1720733;83;20229;-78
2021/04/09 01:32:41;;;;;;;;;;;;;;;1.33;80.18;102277.70;1716567;83;22183;-79
2021/04/09 01:35:15;;;;;;;;;;;;;;;1.33;80.37;102277.70;1716564;83;20729;-78
2021/04/09 01:37:50;;;;;;;;;;;;;;;1.32;80.28;102284.94;1716588;83;20245;-79
2021/04/09 01:40:19;;;;;;;;;;;;;;;1.31;80.30;102288.80;1716559;82;20250;-78
2021/04/09 01:42:50;;;;;;;;;;;;;;;1.30;80.21;102293.05;1716945;83;20540;-79
2021/04/09 01:45:18;;;;;;;;;;;;;;;1.29;80.23;102293.90;1708476;83;21453;-79
2021/04/09 01:47:48;;;;;;;;;;;;;;;1.30;80.21;102296.03;1708432;83;20655;-79
2021/04/09 01:50:18;;;;;;;;;;;;;;;1.28;80.18;102300.28;1716803;83;20579;-78
2021/04/09 01:52:47;;;;;;;;;;;;;;;1.26;80.10;102300.30;1716803;83;20512;-78
2021/04/09 01:55:16;;;;;;;;;;;;;;;1.25;80.09;102302.42;1716748;83;20248;-78
2021/04/09 01:57:44;;;;;;;;;;;;;;;1.23;80.10;102304.14;1716812;83;21202;-78
2021/04/09 02:00:15;;;;;;;;;;;;;;;1.24;80.11;102302.44;1716849;83;20176;-78
2021/04/09 02:02:45;;;;;;;;;;;;;;;1.24;80.12;102303.30;1716933;83;20174;-78
2021/04/09 02:05:15;;;;;;;;;;;;;;;1.23;80.03;102302.86;1717593;83;20249;-78
2021/04/09 02:07:44;;;;;;;;;;;;;;;1.24;80.05;102310.11;1720205;83;20293;-78
2021/04/09 02:10:13;;;;;;;;;;;;;;;1.23;80.11;102313.52;1717320;83;21373;-78
2021/04/09 02:12:43;;;;;;;;;;;;;;;1.18;80.11;102317.34;1716675;83;20143;-78
2021/04/09 02:15:13;;;;;;;;;;;;;;;1.17;80.27;102320.77;1716475;83;20476;-78
2021/04/09 02:17:41;;;;;;;;;;;;;;;1.15;80.33;102316.52;1716753;83;20526;-79
2021/04/09 02:20:11;;;;;;;;;;;;;;;1.11;80.48;102318.23;1716673;83;20242;-78
2021/04/09 02:22:41;;;;;;;;;;;;;;;1.08;80.70;102317.38;1716716;83;21381;-78
2021/04/09 02:25:09;;;;;;;;;;;;;;;1.07;81.08;102317.80;1708645;83;20253;-78
2021/04/09 02:27:37;;;;;;;;;;;;;;;1.08;81.31;102319.51;1716761;83;20218;-78
2021/04/09 02:30:07;;;;;;;;;;;;;;;1.11;81.41;102327.59;1716844;83;20504;-78
2021/04/09 02:32:35;;;;;;;;;;;;;;;1.13;81.36;102324.59;1717079;83;20507;-78
2021/04/09 02:35:04;;;;;;;;;;;;;;;1.12;81.34;102327.58;1716749;83;21432;-79
2021/04/09 02:37:33;;;;;;;;;;;;;;;1.11;81.35;102328.45;1716841;83;20155;-78
2021/04/09 02:40:05;;;;;;;;;;;;;;;1.08;81.33;102331.01;1716809;83;20245;-78
2021/04/09 02:42:34;;;;;;;;;;;;;;;1.08;81.40;102330.16;1716970;83;20277;-78
2021/04/09 02:45:03;;;;;;;;;;;;;;;1.07;81.47;102334.41;1720314;83;20276;-78
2021/04/09 02:47:33;;;;;;;;;;;;;;;1.06;81.37;102332.70;1717966;82;21563;-78
2021/04/09 02:50:13;;;;;;;;;;;;;;;1.05;81.42;102331.02;1716602;83;20245;-78
2021/04/09 02:52:47;;;;;;;;;;;;;;;1.04;81.38;102336.97;1716163;82;20226;-78
2021/04/09 02:55:19;;;;;;;;;;;;;;;1.03;81.40;102337.39;1716731;83;20579;-78
2021/04/09 02:57:48;;;;;;;;;;;;;;;1.02;81.55;102335.67;1716666;83;20297;-78
2021/04/09 03:00:18;;;;;;;;;;;;;;;1.02;81.48;102343.80;1717024;83;21197;-78
2021/04/09 03:02:47;;;;;;;;;;;;;;;1.04;81.49;102348.05;1716794;83;20218;-78
2021/04/09 03:05:18;;;;;;;;;;;;;;;1.03;81.39;102346.76;1716837;83;20224;-78
2021/04/09 03:07:45;;;;;;;;;;;;;;;1.05;81.31;102346.35;1716761;83;20221;-78
2021/04/09 03:10:16;;;;;;;;;;;;;;;1.04;81.20;102342.08;1716947;83;20249;-78
2021/04/09 03:12:44;;;;;;;;;;;;;;;1.03;81.16;102350.17;1716655;83;21190;-78
2021/04/09 03:15:21;;;;;;;;;;;;;;;1.01;81.29;102353.16;1716559;83;20277;-77
2021/04/09 03:18:04;;;;;;;;;;;;;;;1.04;81.55;102355.72;1716833;83;20487;-78
2021/04/09 03:20:33;;;;;;;;;;;;;;;1.07;81.79;102358.70;1717263;83;20266;-78
2021/04/09 03:23:00;;;;;;;;;;;;;;;1.09;81.97;102359.53;1720662;83;20229;-77
2021/04/09 03:25:29;;;;;;;;;;;;;;;1.11;82.09;102353.16;1717749;83;21197;-77
2021/04/09 03:27:57;;;;;;;;;;;;;;;1.10;82.18;102350.17;1716739;83;20600;-78
2021/04/09 03:30:25;;;;;;;;;;;;;;;1.09;82.37;102362.09;1716970;83;20134;-78
2021/04/09 03:32:54;;;;;;;;;;;;;;;1.06;82.47;102361.67;1717017;83;20308;-79
2021/04/09 03:35:22;;;;;;;;;;;;;;;1.04;82.53;102364.67;1716941;83;20543;-79
2021/04/09 03:37:50;;;;;;;;;;;;;;;0.99;82.61;102365.49;1716710;83;22081;-78
2021/04/09 03:40:20;;;;;;;;;;;;;;;0.96;82.80;102374.02;1716604;83;20151;-79
2021/04/09 03:42:49;;;;;;;;;;;;;;;0.93;82.96;102374.02;1716778;83;20178;-79
2021/04/09 03:45:17;;;;;;;;;;;;;;;0.90;83.15;102374.44;1716607;83;20237;-78
2021/04/09 03:47:46;;;;;;;;;;;;;;;0.86;83.25;102381.25;1716783;83;20491;-78
2021/04/09 03:50:14;;;;;;;;;;;;;;;0.84;83.50;102376.57;1716997;83;21288;-78
2021/04/09 03:52:44;;;;;;;;;;;;;;;0.83;83.64;102379.97;1716777;83;20138;-79
2021/04/09 03:55:14;;;;;;;;;;;;;;;0.81;83.81;102385.52;1716782;83;20241;-78
2021/04/09 03:57:42;;;;;;;;;;;;;;;0.78;83.97;102381.67;1716743;83;20134;-78
2021/04/09 04:00:11;;;;;;;;;;;;;;;0.75;84.04;102396.14;1719764;83;20210;-78
2021/04/09 04:02:40;;;;;;;;;;;;;;;0.72;84.18;102398.27;1718364;83;21157;-79
2021/04/09 04:05:08;;;;;;;;;;;;;;;0.74;84.13;102394.01;1716721;83;20500;-78
2021/04/09 04:07:36;;;;;;;;;;;;;;;0.75;84.02;102389.34;1716715;83;20281;-77
2021/04/09 04:10:06;;;;;;;;;;;;;;;0.76;83.75;102405.11;1716936;83;20528;-77
2021/04/09 04:12:34;;;;;;;;;;;;;;;0.76;83.44;102403.83;1716889;83;20123;-78
2021/04/09 04:15:05;;;;;;;;;;;;;;;0.78;83.19;102407.65;1716859;83;20759;-77
2021/04/09 04:17:34;;;;;;;;;;;;;;;0.78;82.86;102414.03;1716894;83;20225;-78
2021/04/09 04:20:02;;;;;;;;;;;;;;;0.80;82.37;102417.47;1716730;83;20249;-77
2021/04/09 04:22:30;;;;;;;;;;;;;;;0.79;81.92;102422.14;1716698;83;20170;-77
2021/04/09 04:24:59;;;;;;;;;;;;;;;0.80;81.22;102423.86;1716671;83;20246;-77
2021/04/09 04:27:28;;;;;;;;;;;;;;;0.81;80.50;102426.81;1716751;83;21209;-77
2021/04/09 04:29:56;;;;;;;;;;;;;;;0.83;79.79;102425.96;1716354;83;20139;-78
2021/04/09 04:32:27;;;;;;;;;;;;;;;0.84;79.02;102428.09;1716649;83;20304;-77
2021/04/09 04:34:55;;;;;;;;;;;;;;;0.85;78.45;102427.26;1716745;83;20592;-77
2021/04/09 04:37:26;;;;;;;;;;;;;;;0.86;77.98;102431.53;1719057;83;20488;-77
2021/04/09 04:39:54;;;;;;;;;;;;;;;0.88;77.46;102436.20;1719202;83;21198;-77
2021/04/09 04:42:22;;;;;;;;;;;;;;;0.90;77.06;102431.94;1716848;83;20214;-76
2021/04/09 04:44:50;;;;;;;;;;;;;;;0.94;76.65;102437.08;1716666;83;20521;-77
2021/04/09 04:47:18;;;;;;;;;;;;;;;1.00;76.47;102441.34;1716602;83;20221;-77
2021/04/09 04:49:47;;;;;;;;;;;;;;;1.03;76.25;102440.06;1717029;83;20217;-80
2021/04/09 04:52:14;;;;;;;;;;;;;;;1.08;75.82;102442.64;1717133;83;21108;-81
2021/04/09 04:54:42;;;;;;;;;;;;;;;1.12;75.58;102441.34;1716824;83;20140;-81
2021/04/09 04:57:11;;;;;;;;;;;;;;;1.16;75.54;102434.11;1716736;83;20225;-80
2021/04/09 04:59:39;;;;;;;;;;;;;;;1.22;75.44;102439.23;1716935;83;20159;-80
2021/04/09 05:02:07;;;;;;;;;;;;;;;1.30;75.25;102439.25;1716945;83;20518;-79
2021/04/09 05:04:35;;;;;;;;;;;;;;;1.41;74.95;102441.36;1716765;83;21201;-80
2021/04/09 05:07:08;;;;;;;;;;;;;;;1.53;74.47;102446.50;1716948;82;20694;-81
2021/04/09 05:09:36;;;;;;;;;;;;;;;1.61;74.26;102449.89;1716809;82;20246;-80
2021/04/09 05:12:05;;;;;;;;;;;;;;;1.71;73.93;102450.31;1718247;83;20692;-79
2021/04/09 05:14:33;;;;;;;;;;;;;;;1.80;73.64;102452.00;1719865;83;20279;-79
2021/04/09 05:17:02;;;;;;;;;;;;;;;1.89;73.45;102460.94;1719293;83;21809;-79
2021/04/09 05:19:31;;;;;;;;;;;;;;;1.99;73.32;102455.81;1716857;82;20186;-81
2021/04/09 05:21:58;;;;;;;;;;;;;;;2.13;72.81;102455.36;1717024;83;20233;-82
2021/04/09 05:24:27;;;;;;;;;;;;;;;2.28;72.21;102465.13;1716657;83;20245;-77
2021/04/09 05:26:54;;;;;;;;;;;;;;;2.47;70.76;102463.77;1716801;82;20226;-79
2021/04/09 05:29:22;;;;;;;;;;;;;;;2.70;70.31;102470.51;1717232;82;21429;-79
2021/04/09 05:31:50;;;;;;;;;;;;;;;2.89;69.67;102470.84;1717081;83;20638;-78
2021/04/09 05:34:18;;;;;;;;;;;;;;;3.04;69.10;102474.16;1717078;83;20245;-79
2021/04/09 05:36:46;;;;;;;;;;;;;;;3.27;68.10;102471.45;1716966;83;20229;-81
2021/04/09 05:39:14;;;;;;;;;;;;;;;3.48;67.44;102475.55;1716862;83;20535;-77
2021/04/09 05:41:42;;;;;;;;;;;;;;;3.61;66.63;102474.16;1717740;83;21147;-84
2021/04/09 05:44:10;;;;;;;;;;;;;;;3.80;65.24;102469.70;1717151;82;20159;-80
2021/04/09 05:46:39;;;;;;;;;;;;;;;4.03;63.93;102481.91;1716841;83;20209;-77
2021/04/09 05:49:06;;;;;;;;;;;;;;;4.22;63.00;102476.99;1717451;82;20553;-80
2021/04/09 05:51:36;;;;;;;;;;;;;;;4.41;62.53;102483.20;1717402;82;20219;-79
2021/04/09 05:54:04;;;;;;;;;;;;;;;4.53;61.94;102482.62;1718308;82;21285;-75
2021/04/09 05:56:32;;;;;;;;;;;;;;;4.66;60.65;102488.03;1730926;81;20169;-77
2021/04/09 05:59:03;;;;;;;;;;;;;;;4.85;59.92;102487.36;1741471;81;20170;-81
2021/04/09 06:01:31;;;;;;;;;;;;;;;5.05;58.87;102490.52;1741864;82;20285;-80
2021/04/09 06:03:59;;;;;;;;;;;;;;;5.23;56.56;102490.70;1741977;81;20534;-80
2021/04/09 06:06:30;;;;;;;;;;;;;;;5.36;56.38;102495.23;1742217;81;21148;-79
2021/04/09 06:08:58;;;;;;;;;;;;;;;5.46;56.41;102491.18;1741430;81;20568;-79
2021/04/09 06:11:26;;;;;;;;;;;;;;;5.54;55.39;102494.50;1741857;82;20291;-80
2021/04/09 06:13:55;;;;;;;;;;;;;;;5.65;55.89;102499.45;1741818;82;20264;-77
2021/04/09 06:16:28;;;;;;;;;;;;;;;5.71;55.77;102507.11;1746128;82;20553;-81
2021/04/09 06:18:59;;;;;;;;;;;;;;;5.80;55.58;102510.38;1749858;82;21498;-79
2021/04/09 06:21:31;;;;;;;;;;;;;;;5.83;54.43;102505.61;1750542;82;20169;-81
2021/04/09 06:23:59;;;;;;;;;;;;;;;5.88;54.58;102517.14;1749967;81;20176;-80
2021/04/09 06:26:27;;;;;;;;;;;;;;;5.93;54.73;102517.93;1749755;80;20315;-80
2021/04/09 06:28:59;;;;;;;;;;;;;;;5.95;55.31;102514.44;1750150;80;20162;-80
2021/04/09 06:31:29;;;;;;;;;;;;;;;6.02;55.93;102513.90;1750714;80;21302;-76
2021/04/09 06:33:56;;;;;;;;;;;;;;;6.08;55.56;102522.81;1749522;82;20296;-78
2021/04/09 06:36:24;;;;;;;;;;;;;;;6.18;55.41;102524.34;1750118;82;20652;-82
2021/04/09 06:38:55;;;;;;;;;;;;;;;6.28;54.59;102529.31;1750025;80;20696;-81
2021/04/09 06:41:24;;;;;;;;;;;;;;;6.36;53.77;102528.72;1750372;82;20405;-82
2021/04/09 06:43:53;;;;;;;;;;;;;;;6.43;53.12;102527.31;1750068;80;21329;-84
2021/04/09 06:46:22;;;;;;;;;;;;;;;6.48;53.05;102530.67;1750013;80;20528;-80
2021/04/09 06:48:51;;;;;;;;;;;;;;;6.56;53.34;102541.67;1749976;82;20169;-78
2021/04/09 06:51:19;;;;;;;;;;;;;;;6.66;52.32;102536.75;1750209;82;20684;-80
2021/04/09 06:53:55;;;;;;;;;;;;;;;6.75;52.35;102544.30;1750438;82;20268;-82
2021/04/09 06:56:24;;;;;;;;;;;;;;;6.83;51.43;102539.81;1750185;80;22293;-82
2021/04/09 06:58:54;;;;;;;;;;;;;;;6.85;50.85;102546.67;1750827;82;20291;-82
2021/04/09 07:01:23;;;;;;;;;;;;;;;6.88;50.73;102542.73;1751239;82;20232;-78
2021/04/09 07:03:55;;;;;;;;;;;;;;;6.89;51.18;102542.30;1750360;82;20614;-80
2021/04/09 07:06:30;;;;;;;;;;;;;;;6.91;51.48;102555.58;1749981;82;20248;-82
2021/04/09 07:08:58;;;;;;;;;;;;;;;6.96;50.74;102549.44;1751261;82;21206;-82
2021/04/09 07:11:28;;;;;;;;;;;;;;;7.01;50.86;102551.06;1751749;82;20288;-82
2021/04/09 07:13:56;;;;;;;;;;;;;;;7.06;50.92;102553.53;1750508;82;20153;-82
2021/04/09 07:16:35;;;;;;;;;;;;;;;7.12;48.48;102557.27;1727666;82;20245;-80
2021/04/09 07:19:05;;;;;;;;;;;;;;;7.19;48.76;102554.53;1751883;82;20311;-79
2021/04/09 07:21:37;;;;;;;;;;;;;;;7.25;48.73;102548.37;1751721;82;21097;-82
2021/04/09 07:24:17;;;;;;;;;;;;;;;7.32;49.13;102554.67;1751642;82;20616;-81
2021/04/09 07:26:49;;;;;;;;;;;;;;;7.42;47.86;102561.77;1752618;82;20208;-83
2021/04/09 07:29:40;;;;;;;;;;;;;;;7.49;46.80;102558.61;1726524;82;20265;-79
2021/04/09 07:32:18;;;;;;;;;;;;;;;7.56;47.69;102561.47;1752456;82;20228;-81
2021/04/09 07:35:00;;;;;;;;;;;;;;;7.66;46.86;102560.38;1752082;82;21210;-80
2021/04/09 07:37:30;;;;;;;;;;;;;;;7.71;47.16;102558.08;1751535;82;20291;-82
2021/04/09 07:40:03;;;;;;;;;;;;;;;7.77;47.63;102558.36;1751044;82;20329;-79
2021/04/09 07:42:35;;;;;;;;;;;;;;;7.82;47.09;102559.94;1751832;80;20605;-79
2021/04/09 07:45:11;;;;;;;;;;;;;;;7.89;45.94;102559.34;1752290;82;20295;-83
2021/04/09 07:47:58;;;;;;;;;;;;;;;7.95;46.28;102563.07;1753461;82;20461;-77
2021/04/09 07:50:43;;;;;;;;;;;;;;;8.04;46.35;102559.43;1753398;82;20156;-80
2021/04/09 07:53:10;;;;;;;;;;;;;;;8.09;45.72;102558.86;1751687;82;20510;-79
2021/04/09 07:55:38;;;;;;;;;;;;;;;8.16;44.55;102568.16;1752063;82;20343;-75
2021/04/09 07:58:25;;;;;;;;;;;;;;;8.20;45.00;102573.67;1752095;82;20252;-79
2021/04/09 08:00:55;;;;;;;;;;;;;;;8.22;45.76;102567.56;1751161;82;22147;-80
2021/04/09 08:03:35;;;;;;;;;;;;;;;8.31;45.07;102567.34;1752015;82;20243;-80
2021/04/09 08:06:11;;;;;;;;;;;;;;;8.38;45.30;102566.30;1752161;82;20286;-84
2021/04/09 08:08:48;;;;;;;;;;;;;;;8.47;45.63;102567.34;1751901;82;20252;-77
2021/04/09 08:11:34;;;;;;;;;;;;;;;8.59;44.08;102566.16;1751772;82;20300;-76
2021/04/09 08:14:12;;;;;;;;;;;;;;;8.73;43.14;102567.08;1752461;80;21860;-80
2021/04/09 08:16:45;;;;;;;;;;;;;;;8.82;42.98;102566.37;1751489;82;20234;-81
2021/04/09 08:19:23;;;;;;;;;;;;;;;8.94;41.51;102568.60;1750783;82;20573;-81
2021/04/09 08:21:57;;;;;;;;;;;;;;;9.03;42.34;102561.85;1750320;82;20319;-80
2021/04/09 08:24:35;;;;;;;;;;;;;;;9.20;42.52;102570.42;1751210;82;20319;-79
2021/04/09 08:27:06;;;;;;;;;;;;;;;9.38;41.55;102563.86;1752381;82;22217;-79
2021/04/09 08:29:34;;;;;;;;;;;;;;;9.58;40.76;102564.91;1752789;82;20216;-78
2021/04/09 08:32:03;;;;;;;;;;;;;;;9.75;40.95;102562.23;1752075;82;20367;-79
2021/04/09 08:34:34;;;;;;;;;;;;;;;9.89;38.66;102558.75;1752004;81;20248;-79
2021/04/09 08:37:03;;;;;;;;;;;;;;;10.02;38.91;102550.49;1726072;82;20284;-75
2021/04/09 08:39:35;;;;;;;;;;;;;;;10.16;38.72;102552.66;1749843;82;21273;-78
2021/04/09 08:42:06;;;;;;;;;;;;;;;10.16;38.28;102558.30;1751085;82;20238;-80
2021/04/09 08:44:36;;;;;;;;;;;;;;;10.05;35.32;102561.23;1750684;82;20212;-80
2021/04/09 08:47:07;;;;;;;;;;;;;;;9.89;35.48;102558.75;1750961;82;20339;-81
2021/04/09 08:49:36;;;;;;;;;;;;;;;9.87;35.38;102561.38;1750962;82;20547;-83
2021/04/09 08:52:06;;;;;;;;;;;;;;;9.85;36.24;102561.05;1749844;82;22147;-73
2021/04/09 08:54:37;;;;;;;;;;;;;;;9.93;38.17;102567.66;1750346;82;20154;-82
2021/04/09 08:57:08;;;;;;;;;;;;;;;9.99;36.95;102557.08;1751004;82;20177;-78
2021/04/09 08:59:45;;;;;;;;;;;;;;;10.08;37.83;102553.35;1747466;82;20225;-79
2021/04/09 09:02:19;;;;;;;;;;;;;;;10.31;36.60;102555.16;1733994;82;20271;-79
2021/04/09 09:05:05;;;;;;;;;;;;;;;10.51;35.31;102557.91;1750191;82;21263;-79
2021/04/09 09:07:54;;;;;;;;;;;;;;;10.70;35.68;102555.05;1750808;82;20572;-81
2021/04/09 09:10:31;;;;;;;;;;;;;;;10.95;32.88;102554.98;1751236;80;20387;-83
2021/04/09 09:13:15;;;;;;;;;;;;;;;11.20;33.81;102554.45;1750846;80;37493;-78
2021/04/09 09:15:46;;;;;;;;;;;;;;;11.36;32.45;102559.45;1751796;82;20136;-80
2021/04/09 09:18:32;;;;;;;;;;;;;;;11.41;31.81;102552.78;1744413;82;21250;-79
2021/04/09 09:21:10;;;;;;;;;;;;;;;11.48;32.55;102549.04;1742456;82;20352;-80
2021/04/09 09:24:05;;;;;;;;;;;;;;;11.49;32.62;102557.20;1743367;82;20129;-78
2021/04/09 09:26:45;;;;;;;;;;;;;;;11.44;32.91;102556.56;1742703;82;20256;-80
2021/04/09 09:29:22;;;;;;;;;;;;;;;11.40;32.65;102558.87;1742543;82;20288;-81
2021/04/09 09:32:08;;;;;;;;;;;;;;;11.32;31.54;102555.74;1742211;82;21123;-83
2021/04/09 09:34:41;;;;;;;;;;;;;;;11.21;30.35;102559.20;1742008;82;20149;-83
2021/04/09 09:37:19;;;;;;;;;;;;;;;11.08;32.30;102560.12;1742505;81;20312;-79
2021/04/09 09:40:06;;;;;;;;;;;;;;;11.14;31.79;102565.08;1742342;82;20229;-81
2021/04/09 09:42:41;;;;;;;;;;;;;;;11.20;31.78;102562.72;1742646;82;20255;-81
2021/04/09 09:45:36;;;;;;;;;;;;;;;11.35;32.08;102557.78;1744205;82;21359;-82
2021/04/09 09:48:19;;;;;;;;;;;;;;;11.50;31.94;102557.16;1742959;82;20236;-80
2021/04/09 09:50:48;;;;;;;;;;;;;;;11.57;31.59;102556.47;1743561;82;20602;-80
2021/04/09 09:53:18;;;;;;;;;;;;;;;11.75;32.00;102558.80;1742673;82;22057;-79
2021/04/09 09:55:52;;;;;;;;;;;;;;;11.86;30.98;102560.07;1742471;82;20233;-82
2021/04/09 09:58:23;;;;;;;;;;;;;;;11.82;30.28;102557.64;1742921;82;21266;-80
2021/04/09 10:00:57;;;;;;;;;;;;;;;11.85;30.53;102561.42;1743307;81;20276;-80
2021/04/09 10:03:37;;;;;;;;;;;;;;;12.35;29.32;102557.52;1742800;81;20229;-79
2021/04/09 10:06:13;;;;;;;;;;;;;;;12.57;28.57;102554.38;1742708;81;20181;-75
2021/04/09 10:08:44;;;;;;;;;;;;;;;13.65;28.12;102558.03;1739953;81;20245;-81
2021/04/09 10:11:19;;;;;;;;;;;;;;;14.05;28.14;102550.81;1742658;81;21208;-79
2021/04/09 10:13:49;;;;;;;;;;;;;;;14.68;26.81;102543.59;1741619;82;20296;-80
2021/04/09 10:16:28;;;;;;;;;;;;;;;14.46;26.48;102546.95;1741621;82;20169;-80
2021/04/09 10:19:00;;;;;;;;;;;;;;;13.95;26.48;102536.08;1741770;82;20723;-83
2021/04/09 10:21:39;;;;;;;;;;;;;;;13.37;27.77;102538.58;1722240;82;20523;-78
2021/04/09 10:24:16;;;;;;;;;;;;;;;12.95;26.87;102542.25;1738924;82;21388;-81
2021/04/09 10:26:59;;;;;;;;;;;;;;;13.81;27.36;102532.48;1741995;81;20526;-81
2021/04/09 10:29:33;;;;;;;;;;;;;;;15.18;25.83;102534.32;1742630;82;20547;-77
2021/04/09 10:32:02;;;;;;;;;;;;;;;16.61;25.54;102533.33;1742647;82;20554;-83
2021/04/09 10:34:32;;;;;;;;;;;;;;;18.00;23.73;102517.31;1743158;82;20245;-81
2021/04/09 10:37:03;;;;;;;;;;;;;;;19.03;22.11;102517.45;1741921;82;21369;-79
2021/04/09 10:39:32;;;;;;;;;;;;;;;19.39;20.98;102508.66;1741910;82;20222;-80
2021/04/09 10:42:02;;;;;;;;;;;;;;;18.93;20.28;102516.42;1743222;81;20224;-81
2021/04/09 10:44:31;;;;;;;;;;;;;;;18.01;20.77;102513.25;1742843;82;20311;-80
2021/04/09 10:47:05;;;;;;;;;;;;;;;17.17;21.52;102526.28;1743120;82;20218;-79
2021/04/09 10:49:39;;;;;;;;;;;;;;;16.17;22.66;102519.44;1743484;82;21200;-80
2021/04/09 10:52:18;;;;;;;;;;;;;;;15.40;24.18;102517.41;1742781;82;20249;-81
2021/04/09 10:54:51;;;;;;;;;;;;;;;15.01;24.93;102516.55;1742366;82;20331;-74
2021/04/09 10:57:23;;;;;;;;;;;;;;;14.80;24.30;102523.81;1741752;82;20347;-79
2021/04/09 10:59:51;;;;;;;;;;;;;;;14.33;24.97;102523.70;1742687;82;20265;-80
2021/04/09 11:02:23;;;;;;;;;;;;;;;13.91;26.19;102520.19;1743234;82;21247;-78
2021/04/09 11:04:54;;;;;;;;;;;;;;;13.55;26.82;102517.66;1743627;82;20236;-79
2021/04/09 11:07:44;;;;;;;;;;;;;;;13.14;27.72;102524.87;1743435;82;20275;-78
2021/04/09 11:10:42;;;;;;;;;;;;;;;12.93;28.56;102526.27;1742178;82;20224;-81
2021/04/09 11:13:37;;;;;;;;;;;;;;;13.69;28.36;102522.17;1740682;81;20158;-80
2021/04/09 11:16:06;;;;;;;;;;;;;;;15.26;25.47;102514.26;1741416;82;21396;-77
2021/04/09 11:18:54;;;;;;;;;;;;;;;16.54;24.08;102509.70;1742507;81;20197;-78
2021/04/09 11:21:45;;;;;;;;;;;;;;;17.60;22.49;102504.69;1739028;82;20307;-78
2021/04/09 11:24:17;;;;;;;;;;;;;;;17.68;19.63;102504.53;1741474;82;20130;-81
2021/04/09 11:26:46;;;;;;;;;;;;;;;17.69;19.85;102502.29;1738857;82;20307;-77
2021/04/09 11:29:23;;;;;;;;;;;;;;;17.79;20.33;102496.80;1741671;82;22125;-76
2021/04/09 11:32:12;;;;;;;;;;;;;;;17.95;21.25;102500.07;1741600;82;20165;-80
2021/04/09 11:34:42;;;;;;;;;;;;;;;17.74;21.05;102494.12;1741820;82;20516;-77
2021/04/09 11:37:13;;;;;;;;;;;;;;;16.46;22.49;102501.48;1741624;82;20629;-80
2021/04/09 11:39:55;;;;;;;;;;;;;;;15.17;24.35;102501.24;1741827;82;20232;-80
2021/04/09 11:42:32;;;;;;;;;;;;;;;14.40;25.50;102500.72;1741556;82;21443;-81
2021/04/09 11:45:02;;;;;;;;;;;;;;;13.93;26.37;102485.73;1741839;81;20269;-75
2021/04/09 11:47:37;;;;;;;;;;;;;;;14.74;25.40;102490.17;1741801;82;20165;-81
2021/04/09 11:50:09;;;;;;;;;;;;;;;15.27;25.46;102484.57;1742328;82;20239;-76
2021/04/09 11:53:01;;;;;;;;;;;;;;;16.04;24.66;102481.35;1742761;82;20265;-82
2021/04/09 11:55:34;;;;;;;;;;;;;;;16.91;24.33;102472.39;1669388;84;21427;-80
2021/04/09 11:58:04;;;;;;;;;;;;;;;17.59;21.32;102471.49;1670912;85;20655;-80
2021/04/09 12:00:35;;;;;;;;;;;;;;;17.45;22.15;102468.45;1679338;85;20279;-80
2021/04/09 12:03:10;;;;;;;;;;;;;;;17.70;22.57;102470.31;1704085;84;20372;-77
2021/04/09 12:05:38;;;;;;;;;;;;;;;18.36;21.63;102470.94;1675164;85;20506;-81
2021/04/09 12:08:15;;;;;;;;;;;;;;;18.76;20.91;102465.52;1677898;85;20162;-78
2021/04/09 12:10:45;;;;;;;;;;;;;;;19.02;20.14;102468.39;1677317;85;20610;-81
2021/04/09 12:13:13;;;;;;;;;;;;;;;19.25;19.42;102460.98;1674182;85;20236;-83
2021/04/09 12:15:42;;;;;;;;;;;;;;;19.99;18.77;102465.88;1680124;85;20137;-79
2021/04/09 12:18:13;;;;;;;;;;;;;;;19.81;19.02;102462.03;1709388;84;20359;-78
2021/04/09 12:20:41;;;;;;;;;;;;;;;18.92;19.78;102446.36;1710485;84;21209;-83
2021/04/09 12:23:11;;;;;;;;;;;;;;;18.31;20.12;102461.70;1710378;84;20526;-81
2021/04/09 12:25:39;;;;;;;;;;;;;;;17.22;21.29;102467.34;1710630;84;20224;-82
2021/04/09 12:28:07;;;;;;;;;;;;;;;16.17;22.45;102465.27;1710488;84;20220;-81
2021/04/09 12:30:35;;;;;;;;;;;;;;;15.31;24.01;102463.86;1710416;84;20224;-77
2021/04/09 12:33:04;;;;;;;;;;;;;;;14.51;24.96;102465.28;1710468;84;22137;-75
2021/04/09 12:35:32;;;;;;;;;;;;;;;13.83;25.48;102463.63;1712159;84;20129;-79
2021/04/09 12:38:02;;;;;;;;;;;;;;;13.49;26.32;102455.37;1711356;81;20128;-80
2021/04/09 12:40:32;;;;;;;;;;;;;;;13.87;25.57;102458.64;1710630;83;20156;-78
2021/04/09 12:42:59;;;;;;;;;;;;;;;14.35;25.12;102450.05;1710380;84;20222;-77
2021/04/09 12:45:30;;;;;;;;;;;;;;;14.51;24.63;102451.38;1710407;84;21370;-78
2021/04/09 12:47:57;;;;;;;;;;;;;;;14.19;24.54;102451.30;1711009;84;20137;-82
2021/04/09 12:50:27;;;;;;;;;;;;;;;13.84;24.79;102443.15;1711009;83;20158;-78
2021/04/09 12:52:55;;;;;;;;;;;;;;;13.76;24.99;102447.90;1710300;84;20137;-81
2021/04/09 12:55:26;;;;;;;;;;;;;;;14.03;25.62;102444.34;1709872;84;20231;-82
2021/04/09 12:57:55;;;;;;;;;;;;;;;14.89;24.28;102440.97;1710598;84;20519;-77
2021/04/09 13:00:23;;;;;;;;;;;;;;;15.63;23.48;102436.70;1710134;84;20766;-77
2021/04/09 13:02:50;;;;;;;;;;;;;;;15.51;22.27;102433.96;1710213;84;20142;-77
2021/04/09 13:05:20;;;;;;;;;;;;;;;15.16;22.99;102435.47;1710478;84;20141;-77
2021/04/09 13:07:47;;;;;;;;;;;;;;;15.03;23.04;102437.59;1710407;84;20232;-78